Weather at İsdemir (İskenderun Iron and Steel) Heliport

Public forecast

Using degrees Celsius for public forecast. Weather courtesy of forecast.io.

Closest aviation weather report (METAR) to İsdemir (İskenderun Iron and Steel) Heliport

Closest report is Hatay Airport, 21.3 nm (39.5 km) S.

2024/02/25 10:50 (retrieved 1 hour ago)

LTDA 251050Z 21012KT 9999 FEW035 20/12 Q1017 NOSIG

Closest aviation forecast (TAF) to İsdemir (İskenderun Iron and Steel) Heliport

Closest forecast is İncirlik Air Base, 41.6 nm (77.1 km) WNW.

2024/02/25 06:00 (retrieved 6 hours ago)

TAF LTAG 250440Z 2506/2606 VRB02KT CAVOK BECMG 2518/2520 FEW035 SCT100 TAF LTAP 250440Z 2506/2606 VRB02KT CAVOK